createdAt,value
2023-05-22T00:01:06.564Z,4.32
2023-05-22T00:03:33.363Z,4.57
2023-05-22T00:06:00.171Z,4.25
2023-05-22T00:08:29.415Z,4.05
2023-05-22T00:10:56.643Z,3.95
2023-05-22T00:13:23.391Z,4.18
2023-05-22T00:15:49.997Z,3.88
2023-05-22T00:18:16.760Z,4.28
2023-05-22T00:20:46.502Z,3.95
2023-05-22T00:23:15.566Z,3.88
2023-05-22T00:25:42.425Z,4.40
2023-05-22T00:28:08.986Z,4.15
2023-05-22T00:30:37.081Z,4.22
2023-05-22T00:33:04.250Z,4.18
2023-05-22T00:35:31.041Z,3.90
2023-05-22T00:37:57.723Z,4.32
2023-05-22T00:40:24.462Z,3.83
2023-05-22T00:42:51.004Z,3.90
2023-05-22T00:45:17.700Z,4.20
2023-05-22T00:47:44.368Z,4.78
2023-05-22T00:50:12.475Z,3.92
2023-05-22T00:52:42.552Z,3.88
2023-05-22T00:55:10.875Z,3.53
2023-05-22T00:57:41.952Z,4.18
2023-05-22T01:00:13.142Z,3.95
2023-05-22T01:02:42.953Z,4.13
2023-05-22T01:05:13.076Z,4.97
2023-05-22T01:07:40.025Z,3.83
2023-05-22T01:10:07.361Z,4.25
2023-05-22T01:12:59.917Z,3.92
2023-05-22T01:15:43.326Z,3.95
2023-05-22T01:18:32.145Z,3.50
2023-05-22T01:21:04.620Z,4.15
2023-05-22T01:23:57.507Z,4.07
2023-05-22T01:26:42.587Z,3.95
2023-05-22T01:29:26.713Z,3.75
2023-05-22T01:31:55.439Z,5.07
2023-05-22T01:34:22.136Z,4.53
2023-05-22T01:36:50.841Z,4.03
2023-05-22T01:39:17.904Z,3.90
2023-05-22T01:41:44.787Z,3.72
2023-05-22T01:44:11.435Z,3.95
2023-05-22T01:46:37.994Z,4.57
2023-05-22T01:49:04.673Z,3.67
2023-05-22T01:51:53.828Z,4.20
2023-05-22T01:54:42.300Z,3.72
2023-05-22T01:57:27.512Z,3.78
2023-05-22T02:00:00.011Z,3.85
2023-05-22T02:02:28.317Z,4.00
2023-05-22T02:05:00.882Z,4.75
2023-05-22T02:07:28.987Z,3.80
2023-05-22T02:09:57.021Z,3.60
2023-05-22T02:12:24.505Z,3.83
2023-05-22T02:14:51.605Z,5.05
2023-05-22T02:17:18.971Z,3.75
2023-05-22T02:19:45.712Z,3.85
2023-05-22T02:22:15.922Z,3.42
2023-05-22T02:24:46.765Z,3.70
2023-05-22T02:27:13.498Z,4.18
2023-05-22T02:29:40.483Z,3.65
2023-05-22T02:32:07.289Z,3.75
2023-05-22T02:34:35.075Z,4.60
2023-05-22T02:37:05.576Z,3.67
2023-05-22T02:39:32.341Z,4.28
2023-05-22T02:41:58.966Z,4.43
2023-05-22T02:44:25.533Z,4.13
2023-05-22T02:46:52.123Z,4.35
2023-05-22T02:49:18.798Z,4.55
2023-05-22T02:51:47.669Z,4.35
2023-05-22T02:54:15.766Z,4.50
2023-05-22T02:56:43.418Z,4.03
2023-05-22T02:59:10.266Z,4.43
2023-05-22T03:01:38.724Z,4.82
2023-05-22T03:04:06.415Z,4.63
2023-05-22T03:06:34.323Z,3.38
2023-05-22T03:09:01.233Z,3.67
2023-05-22T03:11:27.858Z,3.67
2023-05-22T03:13:54.398Z,3.83
2023-05-22T03:16:21.005Z,4.50
2023-05-22T03:18:47.892Z,4.10
2023-05-22T03:21:14.450Z,3.78
2023-05-22T03:23:40.973Z,4.30
2023-05-22T03:26:07.645Z,4.43
2023-05-22T03:28:34.298Z,4.35
2023-05-22T03:31:01.245Z,5.22
2023-05-22T03:33:27.791Z,4.30
2023-05-22T03:35:54.410Z,4.25
2023-05-22T03:38:20.962Z,4.22
2023-05-22T03:40:47.834Z,4.15
2023-05-22T03:43:14.711Z,4.65
2023-05-22T03:45:41.308Z,4.10
2023-05-22T03:48:08.410Z,4.47
2023-05-22T03:50:35.237Z,5.05
2023-05-22T03:53:02.152Z,4.30
2023-05-22T03:55:30.981Z,4.15
2023-05-22T03:57:57.979Z,4.30
2023-05-22T04:00:26.772Z,4.07
2023-05-22T04:02:55.064Z,3.80
2023-05-22T04:05:22.520Z,4.22
2023-05-22T04:07:49.658Z,4.53
2023-05-22T04:10:16.905Z,4.05
2023-05-22T04:12:43.891Z,4.03
2023-05-22T04:15:11.016Z,4.70
2023-05-22T04:17:41.182Z,4.45
2023-05-22T04:20:09.023Z,4.27
2023-05-22T04:22:36.913Z,4.85
2023-05-22T04:25:03.731Z,3.88
2023-05-22T04:27:30.630Z,4.30
2023-05-22T04:30:00.110Z,3.90
2023-05-22T04:32:27.615Z,4.70
2023-05-22T04:34:54.271Z,4.63
2023-05-22T04:37:21.047Z,4.57
2023-05-22T04:39:47.871Z,3.88
2023-05-22T04:42:15.886Z,4.95
2023-05-22T04:44:42.662Z,4.00
2023-05-22T04:47:14.513Z,4.72
2023-05-22T04:49:45.972Z,3.95
2023-05-22T04:52:12.685Z,4.10
2023-05-22T04:54:39.420Z,4.03
2023-05-22T04:57:06.129Z,4.75
2023-05-22T04:59:38.080Z,4.97
2023-05-22T05:02:07.515Z,4.00
2023-05-22T05:04:34.279Z,4.97
2023-05-22T05:07:02.413Z,4.45
2023-05-22T05:09:29.187Z,3.95
2023-05-22T05:11:55.771Z,4.50
2023-05-22T05:14:22.342Z,4.63
2023-05-22T05:16:48.957Z,4.25
2023-05-22T05:19:16.616Z,4.53
2023-05-22T05:21:43.534Z,4.53
2023-05-22T05:24:10.132Z,4.55
2023-05-22T05:26:36.697Z,5.47
2023-05-22T05:29:03.260Z,4.53
2023-05-22T05:31:29.941Z,4.50
2023-05-22T05:33:58.148Z,4.40
2023-05-22T05:36:25.202Z,4.40
2023-05-22T05:38:51.694Z,4.22
2023-05-22T05:41:19.107Z,5.07
2023-05-22T05:43:45.669Z,4.63
2023-05-22T05:46:12.882Z,5.20
2023-05-22T05:48:39.508Z,4.70
2023-05-22T05:51:06.135Z,4.82
2023-05-22T05:53:32.819Z,4.50
2023-05-22T05:55:59.444Z,4.50
2023-05-22T05:58:25.977Z,4.63
2023-05-22T06:00:52.469Z,5.32
2023-05-22T06:03:19.078Z,4.60
2023-05-22T06:05:49.805Z,4.80
2023-05-22T06:08:16.416Z,4.57
2023-05-22T06:10:42.929Z,5.20
2023-05-22T06:13:09.444Z,4.43
2023-05-22T06:15:36.007Z,5.22
2023-05-22T06:18:02.611Z,5.63
2023-05-22T06:20:29.250Z,5.30
2023-05-22T06:22:55.986Z,5.00
2023-05-22T06:25:23.734Z,4.60
2023-05-22T06:27:50.251Z,5.25
2023-05-22T06:30:25.319Z,4.60
2023-05-22T06:32:58.937Z,5.50
2023-05-22T06:35:25.584Z,5.50
2023-05-22T06:37:52.296Z,4.55
2023-05-22T06:40:18.866Z,4.93
2023-05-22T06:42:45.538Z,5.38
2023-05-22T06:45:12.100Z,4.75
2023-05-22T06:47:38.716Z,5.13
2023-05-22T06:50:06.716Z,5.07
2023-05-22T06:52:33.818Z,4.95
2023-05-22T06:55:04.570Z,5.35
2023-05-22T06:57:32.264Z,5.50
2023-05-22T06:59:58.949Z,4.75
2023-05-22T07:02:26.170Z,4.72
2023-05-22T07:04:53.580Z,4.93
2023-05-22T07:07:20.532Z,6.05
2023-05-22T07:09:47.174Z,5.25
2023-05-22T07:12:13.781Z,5.15
2023-05-22T07:14:40.295Z,5.22
2023-05-22T07:17:06.911Z,5.45
2023-05-22T07:19:33.975Z,5.68
2023-05-22T07:22:00.587Z,4.75
2023-05-22T07:24:27.244Z,5.10
2023-05-22T07:26:53.859Z,5.53
2023-05-22T07:29:22.984Z,4.90
2023-05-22T07:31:50.078Z,5.20
2023-05-22T07:34:17.322Z,5.15
2023-05-22T07:36:43.860Z,5.28
2023-05-22T07:39:10.361Z,4.65
2023-05-22T07:41:36.950Z,4.40
2023-05-22T07:44:03.452Z,4.93
2023-05-22T07:46:30.032Z,5.38
2023-05-22T07:48:56.735Z,4.95
2023-05-22T07:51:23.298Z,5.72
2023-05-22T07:53:49.827Z,5.25
2023-05-22T07:56:17.614Z,5.15
2023-05-22T07:58:44.362Z,4.88
2023-05-22T08:01:11.116Z,5.80
2023-05-22T08:03:37.902Z,5.30
2023-05-22T08:06:04.783Z,4.80
2023-05-22T08:08:32.166Z,4.82
2023-05-22T08:13:28.183Z,4.75
2023-05-22T08:16:00.297Z,4.90
2023-05-22T08:18:29.173Z,5.47
2023-05-22T08:20:56.201Z,4.53
2023-05-22T08:23:23.094Z,4.88
2023-05-22T08:25:50.273Z,4.45
2023-05-22T08:28:17.293Z,4.25
2023-05-22T08:30:44.088Z,4.78
2023-05-22T08:33:12.137Z,4.30
2023-05-22T08:35:39.155Z,4.53
2023-05-22T08:38:05.863Z,4.90
2023-05-22T08:40:37.738Z,4.85
2023-05-22T08:43:07.838Z,4.40
2023-05-22T08:45:34.787Z,5.28
2023-05-22T08:48:06.509Z,4.90
2023-05-22T08:50:37.110Z,4.43
2023-05-22T08:53:06.842Z,4.55
2023-05-22T08:55:34.341Z,4.28
2023-05-22T08:58:01.414Z,4.40
2023-05-22T09:00:29.727Z,5.82
2023-05-22T09:02:57.662Z,4.72
2023-05-22T09:05:26.719Z,5.88
2023-05-22T09:07:56.539Z,5.10
2023-05-22T09:10:25.575Z,4.93
2023-05-22T09:13:09.279Z,4.32
2023-05-22T09:15:37.195Z,4.43
2023-05-22T09:18:05.003Z,4.20
2023-05-22T09:20:39.139Z,4.10
2023-05-22T09:23:19.827Z,5.20
2023-05-22T09:25:46.668Z,5.43
2023-05-22T09:28:13.637Z,4.35
2023-05-22T09:30:42.378Z,4.20
2023-05-22T09:33:12.910Z,4.22
2023-05-22T09:35:39.896Z,4.10
2023-05-22T09:38:06.549Z,3.67
2023-05-22T09:40:35.046Z,4.20
2023-05-22T09:43:06.560Z,7.95
2023-05-22T09:45:35.986Z,3.95
2023-05-22T09:48:04.345Z,3.33
2023-05-22T09:50:31.623Z,3.08
2023-05-22T09:53:02.069Z,3.30
2023-05-22T09:55:29.147Z,3.08
2023-05-22T09:57:56.957Z,3.40
2023-05-22T10:00:25.126Z,3.78
2023-05-22T10:03:24.623Z,3.75
2023-05-22T10:05:54.277Z,3.40
2023-05-22T10:08:25.142Z,3.63
2023-05-22T10:10:53.633Z,3.88
2023-05-22T10:13:21.457Z,3.28
2023-05-22T10:15:49.486Z,4.57
2023-05-22T10:18:17.479Z,3.15
2023-05-22T10:20:46.810Z,3.25
2023-05-22T10:23:15.323Z,3.30
2023-05-22T10:25:42.979Z,3.03
2023-05-22T10:28:10.825Z,3.85
2023-05-22T10:30:40.864Z,2.95
2023-05-22T10:33:16.766Z,3.60
2023-05-22T10:35:58.979Z,4.03
2023-05-22T10:38:28.328Z,3.63
2023-05-22T10:40:55.887Z,3.25
2023-05-22T10:43:22.995Z,3.15
2023-05-22T10:45:49.821Z,3.63
2023-05-22T10:48:22.204Z,3.17
2023-05-22T10:50:54.774Z,3.70
2023-05-22T10:53:24.688Z,3.13
2023-05-22T10:55:53.308Z,3.35
2023-05-22T10:58:38.295Z,3.70
2023-05-22T11:01:21.395Z,3.08
2023-05-22T11:04:11.599Z,3.17
2023-05-22T11:06:46.320Z,2.97
2023-05-22T11:09:31.961Z,3.60
2023-05-22T11:12:31.045Z,3.22
2023-05-22T11:15:06.154Z,3.20
2023-05-22T11:17:36.191Z,3.13
2023-05-22T11:20:05.514Z,3.60
2023-05-22T11:22:37.176Z,3.27
2023-05-22T11:25:09.652Z,4.00
2023-05-22T11:27:37.283Z,3.42
2023-05-22T11:30:04.167Z,3.33
2023-05-22T11:32:31.003Z,3.35
2023-05-22T11:34:57.914Z,2.35
2023-05-22T11:37:24.495Z,3.30
2023-05-22T11:39:56.777Z,3.42
2023-05-22T11:42:23.713Z,3.03
2023-05-22T11:44:50.414Z,3.65
2023-05-22T11:47:16.997Z,2.58
2023-05-22T11:49:44.060Z,2.83
2023-05-22T11:52:10.947Z,3.08
2023-05-22T11:54:38.925Z,3.10
2023-05-22T11:57:08.330Z,3.97
2023-05-22T11:59:35.694Z,3.83
2023-05-22T12:02:02.281Z,2.88
2023-05-22T12:04:28.845Z,2.92
2023-05-22T12:06:56.084Z,3.33
2023-05-22T12:09:23.228Z,2.95
2023-05-22T12:11:49.910Z,3.10
2023-05-22T12:14:16.579Z,2.67
2023-05-22T12:16:44.449Z,2.88
2023-05-22T12:19:12.096Z,3.58
2023-05-22T12:21:39.439Z,3.83
2023-05-22T12:24:06.424Z,2.83
2023-05-22T12:26:33.101Z,2.63
2023-05-22T12:29:00.268Z,2.67
2023-05-22T12:31:27.188Z,2.33
2023-05-22T12:33:55.139Z,2.58
2023-05-22T12:36:31.157Z,2.78
2023-05-22T12:38:57.836Z,2.25
2023-05-22T12:41:24.321Z,2.53
2023-05-22T12:43:51.070Z,2.20
2023-05-22T12:46:17.755Z,2.28
2023-05-22T12:48:44.271Z,2.88
2023-05-22T12:51:10.917Z,2.92
2023-05-22T12:53:37.403Z,2.40
2023-05-22T12:56:04.173Z,3.00
2023-05-22T12:58:30.682Z,2.65
2023-05-22T13:00:57.221Z,2.50
2023-05-22T13:03:23.907Z,2.50
2023-05-22T13:05:50.415Z,2.25
2023-05-22T13:08:17.004Z,2.60
2023-05-22T13:10:43.586Z,2.55
2023-05-22T13:13:10.076Z,2.50
2023-05-22T13:15:36.631Z,2.95
2023-05-22T13:18:04.087Z,2.42
2023-05-22T13:20:30.666Z,2.00
2023-05-22T13:22:57.404Z,2.53
2023-05-22T13:25:24.441Z,1.80
2023-05-22T13:27:51.058Z,2.83
2023-05-22T13:30:17.615Z,2.10
2023-05-22T13:32:44.168Z,2.10
2023-05-22T13:35:10.770Z,2.65
2023-05-22T13:37:37.861Z,2.40
2023-05-22T13:40:04.894Z,2.65
2023-05-22T13:42:31.438Z,2.60
2023-05-22T13:44:58.253Z,2.42
2023-05-22T13:47:25.965Z,1.95
2023-05-22T13:49:52.523Z,2.35
2023-05-22T13:52:18.999Z,2.55
2023-05-22T13:54:45.667Z,3.08
2023-05-22T13:57:12.250Z,2.38
2023-05-22T13:59:38.803Z,2.20
2023-05-22T14:02:05.784Z,3.00
2023-05-22T14:04:32.337Z,2.60
2023-05-22T14:06:59.093Z,2.08
2023-05-22T14:09:25.774Z,2.15
2023-05-22T14:11:52.313Z,1.98
2023-05-22T14:14:23.883Z,2.55
2023-05-22T14:16:51.613Z,2.83
2023-05-22T14:19:19.185Z,2.38
2023-05-22T14:21:48.419Z,2.40
2023-05-22T14:24:15.039Z,2.40
2023-05-22T14:26:41.659Z,2.35
2023-05-22T14:29:08.302Z,2.10
2023-05-22T14:31:45.881Z,2.00
2023-05-22T14:34:12.636Z,2.72
2023-05-22T14:36:39.106Z,2.28
2023-05-22T14:39:05.616Z,2.20
2023-05-22T14:41:32.116Z,2.35
2023-05-22T14:43:58.635Z,2.17
2023-05-22T14:46:25.231Z,2.20
2023-05-22T14:48:51.797Z,2.53
2023-05-22T14:51:21.746Z,2.03
2023-05-22T14:56:14.986Z,1.92
2023-05-22T14:58:41.555Z,2.13
2023-05-22T15:01:08.040Z,2.03
2023-05-22T15:03:34.556Z,2.30
2023-05-22T15:06:01.110Z,2.30
2023-05-22T15:08:27.646Z,2.75
2023-05-22T15:10:54.168Z,3.17
2023-05-22T15:13:21.506Z,2.45
2023-05-22T15:15:48.030Z,2.08
2023-05-22T15:18:14.667Z,2.20
2023-05-22T15:20:41.231Z,2.30
2023-05-22T15:23:07.766Z,2.83
2023-05-22T15:25:36.437Z,2.00
2023-05-22T15:28:06.379Z,2.33
2023-05-22T15:30:38.863Z,2.10
2023-05-22T15:33:05.729Z,2.42
2023-05-22T15:35:32.328Z,2.40
2023-05-22T15:37:59.041Z,2.58
2023-05-22T15:40:25.710Z,2.53
2023-05-22T15:42:53.197Z,2.40
2023-05-22T15:45:20.270Z,2.60
2023-05-22T15:47:47.411Z,2.78
2023-05-22T15:50:14.102Z,2.70
2023-05-22T15:52:40.999Z,2.60
2023-05-22T15:55:07.946Z,2.90
2023-05-22T15:57:34.571Z,2.67
2023-05-22T16:00:01.199Z,3.13
2023-05-22T16:02:27.820Z,2.80
2023-05-22T16:04:54.331Z,2.55
2023-05-22T16:07:20.887Z,2.45
2023-05-22T16:09:47.404Z,2.67
2023-05-22T16:12:13.934Z,3.22
2023-05-22T16:14:40.599Z,2.60
2023-05-22T16:17:07.674Z,2.97
2023-05-22T16:19:34.317Z,3.08
2023-05-22T16:22:01.023Z,2.80
2023-05-22T16:24:27.540Z,2.67
2023-05-22T16:26:56.368Z,2.78
2023-05-22T16:29:22.907Z,2.45
2023-05-22T16:31:49.580Z,2.22
2023-05-22T16:34:16.182Z,2.70
2023-05-22T16:36:42.822Z,3.30
2023-05-22T16:39:09.503Z,2.22
2023-05-22T16:41:39.144Z,2.65
2023-05-22T16:44:05.761Z,3.00
2023-05-22T16:46:32.424Z,3.05
2023-05-22T16:48:59.072Z,3.42
2023-05-22T16:51:25.663Z,3.83
2023-05-22T16:53:52.488Z,2.45
2023-05-22T16:56:20.806Z,2.63
2023-05-22T16:58:47.724Z,2.92
2023-05-22T17:01:14.702Z,2.72
2023-05-22T17:03:41.827Z,3.08
2023-05-22T17:06:09.019Z,2.88
2023-05-22T17:08:35.711Z,2.60
2023-05-22T17:11:02.330Z,3.17
2023-05-22T17:13:28.917Z,2.75
2023-05-22T17:15:55.539Z,2.40
2023-05-22T17:18:22.131Z,3.47
2023-05-22T17:20:50.284Z,2.85
2023-05-22T17:23:17.720Z,2.53
2023-05-22T17:25:46.592Z,2.85
2023-05-22T17:28:14.474Z,2.35
2023-05-22T17:30:42.662Z,2.90
2023-05-22T17:33:09.933Z,2.78
2023-05-22T17:35:36.525Z,3.60
2023-05-22T17:38:03.246Z,3.30
2023-05-22T17:40:43.124Z,2.67
2023-05-22T17:43:11.259Z,3.28
2023-05-22T17:45:37.969Z,3.22
2023-05-22T17:48:04.914Z,2.95
2023-05-22T17:50:31.588Z,3.20
2023-05-22T17:52:58.286Z,3.10
2023-05-22T17:55:24.871Z,2.97
2023-05-22T17:57:51.563Z,8.00
2023-05-22T18:00:18.653Z,18.27
2023-05-22T18:02:45.657Z,3.45
2023-05-22T18:05:12.450Z,3.50
2023-05-22T18:07:39.538Z,3.30
2023-05-22T18:10:06.891Z,3.83
2023-05-22T18:12:34.501Z,3.03
2023-05-22T18:15:02.598Z,3.22
2023-05-22T18:17:29.103Z,3.00
2023-05-22T18:19:55.885Z,3.58
2023-05-22T18:22:22.475Z,2.90
2023-05-22T18:24:49.213Z,3.28
2023-05-22T18:27:15.769Z,2.72
2023-05-22T18:29:42.375Z,3.58
2023-05-22T18:32:10.828Z,3.60
2023-05-22T18:34:37.820Z,2.50
2023-05-22T18:37:04.757Z,3.67
2023-05-22T18:39:31.569Z,2.47
2023-05-22T18:41:58.569Z,2.88
2023-05-22T18:44:25.366Z,3.90
2023-05-22T18:46:52.045Z,3.40
2023-05-22T18:49:18.882Z,2.70
2023-05-22T18:51:45.817Z,3.42
2023-05-22T18:54:12.382Z,3.63
2023-05-22T18:56:39.345Z,3.33
2023-05-22T18:59:05.993Z,4.22
2023-05-22T19:01:33.179Z,3.35
2023-05-22T19:04:00.560Z,3.33
2023-05-22T19:06:29.858Z,3.65
2023-05-22T19:08:56.425Z,3.70
2023-05-22T19:11:23.018Z,8.90
2023-05-22T19:13:50.817Z,3.88
2023-05-22T19:16:17.507Z,3.50
2023-05-22T19:18:44.129Z,2.65
2023-05-22T19:21:10.845Z,3.08
2023-05-22T19:23:38.595Z,3.42
2023-05-22T19:26:05.427Z,3.53
2023-05-22T19:28:32.366Z,3.55
2023-05-22T19:31:00.093Z,4.22
2023-05-22T19:33:27.292Z,3.10
2023-05-22T19:35:53.848Z,3.45
2023-05-22T19:38:20.431Z,3.53
2023-05-22T19:40:47.017Z,3.78
2023-05-22T19:43:13.777Z,3.53
2023-05-22T19:45:40.530Z,3.65
2023-05-22T19:48:07.225Z,3.40
2023-05-22T19:50:35.492Z,3.78
2023-05-22T19:53:02.247Z,3.42
2023-05-22T19:55:28.962Z,3.90
2023-05-22T19:57:55.812Z,3.58
2023-05-22T20:00:22.873Z,3.42
2023-05-22T20:02:50.149Z,3.80
2023-05-22T20:05:16.961Z,4.07
2023-05-22T20:07:43.908Z,4.47
2023-05-22T20:10:12.296Z,4.47
2023-05-22T20:12:40.007Z,4.55
2023-05-22T20:15:08.591Z,4.28
2023-05-22T20:17:36.020Z,3.88
2023-05-22T20:20:02.649Z,4.68
2023-05-22T20:22:29.199Z,5.47
2023-05-22T20:24:55.953Z,4.53
2023-05-22T20:27:22.562Z,4.30
2023-05-22T20:29:51.808Z,4.25
2023-05-22T20:32:18.279Z,3.28
2023-05-22T20:34:45.500Z,4.22
2023-05-22T20:37:13.623Z,3.95
2023-05-22T20:39:43.082Z,4.10
2023-05-22T20:42:11.627Z,4.13
2023-05-22T20:44:38.259Z,4.45
2023-05-22T20:47:05.880Z,4.63
2023-05-22T20:49:34.811Z,4.28
2023-05-22T20:52:01.949Z,4.18
2023-05-22T20:54:33.958Z,3.38
2023-05-22T20:57:03.856Z,4.63
2023-05-22T20:59:30.975Z,4.03
2023-05-22T21:01:57.836Z,3.92
2023-05-22T21:04:24.750Z,3.90
2023-05-22T21:06:51.418Z,4.07
2023-05-22T21:09:18.188Z,4.78
2023-05-22T21:11:44.732Z,4.05
2023-05-22T21:14:11.390Z,4.07
2023-05-22T21:16:39.534Z,4.40
2023-05-22T21:19:07.257Z,4.43
2023-05-22T21:21:35.591Z,4.25
2023-05-22T21:24:02.144Z,3.72
2023-05-22T21:26:28.635Z,4.25
2023-05-22T21:28:55.312Z,4.28
2023-05-22T21:31:21.854Z,3.95
2023-05-22T21:33:48.386Z,3.45
2023-05-22T21:36:14.930Z,4.95
2023-05-22T21:38:41.394Z,5.05
2023-05-22T21:41:07.943Z,4.40
2023-05-22T21:43:34.480Z,4.10
2023-05-22T21:46:00.973Z,4.15
2023-05-22T21:48:27.462Z,5.22
2023-05-22T21:50:54.095Z,4.60
2023-05-22T21:53:21.048Z,3.58
2023-05-22T21:55:47.647Z,4.70
2023-05-22T21:58:14.291Z,4.07
2023-05-22T22:00:41.161Z,3.95
2023-05-22T22:03:08.524Z,3.80
2023-05-22T22:05:35.974Z,3.72
2023-05-22T22:08:02.526Z,4.20
2023-05-22T22:10:29.052Z,4.38
2023-05-22T22:12:55.650Z,4.60
2023-05-22T22:15:22.491Z,7.38
2023-05-22T22:17:50.144Z,4.78
2023-05-22T22:20:18.663Z,4.78
2023-05-22T22:22:49.083Z,4.60
2023-05-22T22:25:15.666Z,5.43
2023-05-22T22:27:42.228Z,4.57
2023-05-22T22:30:09.883Z,4.60
2023-05-22T22:32:37.273Z,5.20
2023-05-22T22:35:03.975Z,4.97
2023-05-22T22:37:31.060Z,4.30
2023-05-22T22:39:57.599Z,4.38
2023-05-22T22:42:24.789Z,4.55
2023-05-22T22:44:51.276Z,5.20
2023-05-22T22:47:18.083Z,4.03
2023-05-22T22:49:44.576Z,4.32
2023-05-22T22:52:11.236Z,3.83
2023-05-22T22:54:37.921Z,3.83
2023-05-22T22:57:04.613Z,4.60
2023-05-22T22:59:31.753Z,3.80
2023-05-22T23:01:58.286Z,5.03
2023-05-22T23:04:24.937Z,4.45
2023-05-22T23:06:52.674Z,4.55
2023-05-22T23:09:19.254Z,4.70
2023-05-22T23:11:45.757Z,4.50
2023-05-22T23:14:13.432Z,4.50
2023-05-22T23:16:42.864Z,4.28
2023-05-22T23:19:10.934Z,4.10
2023-05-22T23:21:37.539Z,4.13
2023-05-22T23:24:04.929Z,4.10
2023-05-22T23:26:32.265Z,4.70
2023-05-22T23:28:59.869Z,4.85
2023-05-22T23:31:30.463Z,3.72
2023-05-22T23:33:57.715Z,4.05
2023-05-22T23:36:24.766Z,4.10
2023-05-22T23:38:51.312Z,3.92
2023-05-22T23:41:18.556Z,4.70
2023-05-22T23:43:46.253Z,4.38
2023-05-22T23:46:13.973Z,4.78
2023-05-22T23:48:41.709Z,5.28
2023-05-22T23:51:14.347Z,5.47
2023-05-22T23:53:42.032Z,5.35
2023-05-22T23:56:09.096Z,4.60
2023-05-22T23:58:35.733Z,5.00
